Weather observations for the past three days for
Winona, Winona Municipal Airport-Max Conrad Field
Imperial (Metric)
Date Time (cdt) Wind (mph) Vis. (mi.) Weather Sky Cond. Temperature (ºF) Relative Humidity Wind Chill (°F) Heat Index (°F) Pressure Precipitation (in)
Air Dwpt 6 hour altimeter (in) sea level (mb) 1 hr 3 hr 6 hr
Max. Min.
06 03:15 NW 6 10.00 Fair CLR 37.4 26.6 65% 33 29.93 0.0
06 02:55 NW 6 10.00 Fair CLR 37.4 26.6 65% 33 29.93 0.0
06 02:35 W 3 10.00 Fair CLR 41 26.6 57% 29.93 0.0
06 02:15 NW 5 10.00 Fair CLR 37.4 26.6 65% 34 29.92 0.0
06 01:55 NW 3 10.00 Fair CLR 41 26.6 57% 29.91 0.0
06 01:35 NW 8 10.00 Fair CLR 41 24.8 53% 36 29.91 0.0
06 01:15 NW 9 10.00 Fair CLR 41 26.6 57% 36 29.91 0.0
06 00:55 NW 8 10.00 Fair CLR 42.8 26.6 53% 39 29.91 0.0
06 00:35 NW 12 10.00 Fair CLR 42.8 26.6 53% 37 29.9 0.0
06 00:15 NW 8 10.00 Partly Cloudy SCT080 42.8 26.6 53% 39 29.9 0.0
05 23:55 W 6 10.00 Mostly Cloudy BKN080 44.6 26.6 49% 42 29.89 0.0
05 23:35 W 5 10.00 Overcast OVC080 44.6 26.6 49% 43 29.89 0.0
05 23:15 W 5 10.00 Overcast OVC080 46.4 24.8 43% 45 29.88 0.0
05 22:55 W 6 10.00 Overcast OVC090 46.4 24.8 43% 44 29.88 0.0
05 22:35 W 5 10.00 Overcast OVC090 46.4 24.8 43% 45 29.88 0.0
05 22:15 W 5 10.00 Overcast OVC090 46.4 24.8 43% 45 29.88 0.0
05 21:55 W 5 10.00 Overcast OVC090 46.4 24.8 43% 45 29.88 0.0
05 21:35 W 6 10.00 Overcast OVC090 46.4 24.8 43% 44 29.87 0.0
05 21:15 W 6 10.00 Overcast OVC090 46.4 24.8 43% 44 29.87 0.0
05 20:55 NW 6 10.00 Overcast OVC090 48.2 26.6 43% 46 29.86 0.0
05 20:35 NW 7 10.00 Overcast OVC090 48.2 24.8 40% 46 29.85 0.0
05 20:15 NW 7 10.00 Overcast OVC090 48.2 24.8 40% 46 29.85 0.0
05 19:55 NW 7 10.00 Overcast OVC090 48.2 23 37% 46 29.85 0.0
05 19:35 NW 7 10.00 Partly Cloudy SCT090 48.2 24.8 40% 46 29.84 0.0
05 19:15 W 6 G 9 10.00 Partly Cloudy SCT085 50 24.8 37% 48 29.84 0.0
05 18:55 NW 10 10.00 Mostly Cloudy BKN085 50 23 35% 46 29.84 0.0
05 18:35 W 9 10.00 Overcast OVC085 50 24.8 37% 47 29.84 0.0
05 18:15 NW 13 10.00 Overcast OVC085 50 23 35% 46 29.84 0.0
05 17:55 NW 10 10.00 Overcast OVC085 50 23 35% 46 29.84 0.0
05 17:35 NW 9 10.00 Overcast OVC085 51.8 23 32% 29.84 0.0
05 17:15 NW 12 10.00 Overcast OVC085 50 21.2 32% 46 29.84 0.0
05 16:55 NW 10 10.00 Overcast OVC085 50 21.2 32% 46 29.84 0.0
05 16:35 NW 12 G 20 10.00 Mostly Cloudy BKN085 50 21.2 32% 46 29.84 0.0
05 16:15 NW 14 G 22 10.00 Overcast OVC075 51.8 21.2 30% 29.84 0.0
05 15:55 NW 12 G 18 10.00 Mostly Cloudy BKN075 51.8 19.4 28% 29.84 0.0
05 15:35 W 12 G 18 10.00 Mostly Cloudy BKN075 53.6 21.2 28% 29.84 0.0
05 15:15 NW 10 G 20 10.00 Overcast OVC070 51.8 21.2 30% 29.84 0.0
05 14:55 W 12 G 22 10.00 Overcast OVC070 51.8 21.2 30% 29.85 0.0
05 14:35 NW 14 G 22 10.00 Overcast OVC070 51.8 21.2 30% 29.85 0.0
05 14:28 W 15 G 21 10.00 Overcast OVC070 51.8 21.2 30% 29.85 0.0
05 14:00 W 10 10.00 Overcast OVC070 53.6 21.2 28% 29.85 0.0
05 13:43 W 8 10.00 Mostly Cloudy BKN070 51.8 19.4 28% 29.85 0.0
05 13:26 W 12 10.00 Partly Cloudy SCT070 51.8 19.4 28% 29.84 0.0
05 13:03 NW 13 10.00 Partly Cloudy SCT070 50 19.4 30% 46 29.84 0.0
05 12:42 NW 16 10.00 Partly Cloudy SCT070 51.8 21.2 30% 29.84 0.0
05 12:22 NW 20 10.00 Partly Cloudy SCT070 50 19.4 30% 44 29.85 0.0
05 12:02 W 13 10.00 Mostly Cloudy BKN070 50 21.2 32% 46 29.85 0.0
05 11:22 NW 10 10.00 Partly Cloudy SCT070 50 21.2 32% 46 29.85 0.0
05 11:06 NW 13 10.00 Partly Cloudy SCT070 51.8 21.2 30% 29.85 0.0
05 10:46 NW 6 10.00 Fair CLR 50 21.2 32% 48 29.85 0.0
05 10:23 NW 9 10.00 Fair CLR 48.2 21.2 34% 45 29.84 0.0
05 10:02 N 13 10.00 Fair CLR 48.2 19.4 32% 43 29.84 0.0
05 09:30 N 9 10.00 Fair CLR 48.2 19.4 32% 45 29.84 0.0
05 09:02 NW 9 10.00 Fair CLR 46.4 19.4 34% 42 29.84 0.0
05 08:40 NW 13 10.00 Fair CLR 46.4 21.2 37% 41 29.84 0.0
05 08:23 NW 13 10.00 Fair CLR 44.6 21.2 39% 39 29.84 0.0
05 08:01 NW 9 10.00 Fair CLR 44.6 24.8 46% 40 29.83 0.0
05 07:40 NW 7 10.00 Fair CLR 42.8 26.6 53% 39 29.82 0.0
05 07:23 NW 7 10.00 Fair CLR 42.8 26.6 53% 39 29.81 0.0
05 07:01 W 7 10.00 Fair CLR 41 26.6 57% 37 0 0.0
05 06:41 W 6 10.00 Fair CLR 41 24.8 53% 38 29.78 0.0
05 06:22 W 5 10.00 Fair CLR 41 26.6 57% 38 29.78 0.0
05 06:01 W 6 10.00 Fair CLR 41 24.8 53% 38 29.77 0.0
05 05:42 W 7 10.00 Fair CLR 41 24.8 53% 37 29.77 0.0
05 05:23 NW 6 10.00 Fair CLR 39.2 26.6 61% 36 29.75 0.0
05 05:05 W 6 10.00 Fair CLR 41 24.8 53% 38 29.75 0.0
05 04:43 NW 6 10.00 Fair CLR 42.8 24.8 49% 40 29.75 0.0
05 04:25 NW 7 10.00 Fair CLR 42.8 24.8 49% 39 29.75 0.0
05 04:05 NW 8 10.00 Fair CLR 42.8 24.8 49% 39 29.74 0.0
05 03:45 W 8 10.00 Fair CLR 44.6 24.8 46% 41 29.73 0.0
05 03:25 W 8 10.00 Fair CLR 44.6 24.8 46% 41 29.72 0.0
05 03:05 W 6 10.00 Fair CLR 44.6 24.8 46% 42 29.72 0.0
05 02:29 NW 7 10.00 Fair CLR 44.6 26.6 49% 41 29.71 0.0
05 02:06 NW 6 10.00 Fair CLR 42.8 26.6 53% 40 29.71 0.0
05 01:50 NW 7 10.00 Fair CLR 46.4 24.8 43% 43 29.71 0.0
05 01:28 W 6 10.00 Fair CLR 46.4 24.8 43% 44 29.71 0.0
05 01:08 W 8 10.00 Fair CLR 46.4 24.8 43% 43 29.71 0.0
05 00:30 W 7 10.00 Fair CLR 46.4 24.8 43% 43 29.71 0.0
05 00:08 W 9 10.00 Fair CLR 46.4 24.8 43% 42 29.71 0.0
04 23:49 NW 7 10.00 Fair CLR 48.2 24.8 40% 46 29.71 0.0
04 23:27 NW 10 10.00 Fair CLR 48.2 24.8 40% 44 29.71 0.0
04 23:10 NW 12 10.00 Fair CLR 48.2 26.6 43% 44 0 0.0
04 22:42 NW 14 10.00 Fair CLR 50 26.6 40% 45 29.7 0.0
04 22:23 NW 10 10.00 Fair CLR 50 26.6 40% 46 29.68 0.0
04 22:03 W 13 10.00 Fair CLR 51.8 24.8 35% 29.67 0.0
04 21:42 NW 10 10.00 Fair CLR 51.8 26.6 38% 29.66 0.0
04 21:25 NW 14 10.00 Fair CLR 51.8 26.6 38% 29.65 0.0
04 21:05 NW 18 10.00 Fair CLR 53.6 26.6 35% 29.64 0.0
04 20:46 W 13 10.00 Fair CLR 53.6 28.4 38% 29.63 0.0
04 20:27 NW 16 10.00 Fair CLR 55.4 28.4 36% 29.61 0.0
04 20:09 W 14 10.00 Fair CLR 55.4 28.4 36% 29.6 0.0
04 19:20 W 17 10.00 Fair CLR 57.2 28.4 33% 29.58 0.0
04 19:05 NW 17 10.00 Fair CLR 59 28.4 31% 29.57 0.0
04 18:42 NW 18 10.00 Fair CLR 60.8 30.2 31% 29.57 0.0
04 18:22 W 12 10.00 Fair CLR 60.8 28.4 29% 29.56 0.0
04 18:02 W 17 10.00 Fair CLR 62.6 30.2 30% 29.55 0.0
04 17:42 W 15 10.00 Fair CLR 62.6 30.2 30% 29.54 0.0
04 17:22 W 17 10.00 Fair CLR 62.6 28.4 27% 29.54 0.0
04 17:02 NW 16 10.00 Fair CLR 62.6 24.8 24% 29.53 0.0
04 16:42 W 17 10.00 Fair CLR 64.4 24.8 22% 29.52 0.0
04 16:24 NW 20 10.00 Fair CLR 64.4 24.8 22% 29.51 0.0
04 16:05 NW 22 10.00 Fair and Breezy CLR 66.2 26.6 22% 29.51 0.0
04 15:47 W 9 10.00 Fair CLR 66.2 24.8 21% 0 0.0
04 14:02 NW 15 10.00 Fair CLR 68 32 26% 29.48 0.0
04 13:42 NW 12 10.00 Fair CLR 68 32 26% 29.48 0.0
04 13:10 W 9 10.00 Fair CLR 69.8 35.6 29% 29.47 0.0
04 12:51 NW 17 10.00 Fair CLR 69.8 35.6 29% 29.46 0.0
04 12:24 W 14 10.00 Fair CLR 68 39.2 35% 29.46 0.0
04 12:04 W 13 10.00 Fair CLR 69.8 39.2 33% 29.47 0.0
04 11:45 W 10 10.00 Fair CLR 68 39.2 35% 29.47 0.0
04 11:28 NW 14 10.00 Fair CLR 68 41 38% 29.46 0.0
04 11:11 W 13 10.00 Fair CLR 68 39.2 35% 29.46 0.0
04 10:50 W 10 10.00 Fair CLR 68 39.2 35% 29.46 0.0
04 10:32 W 14 10.00 Fair CLR 68 39.2 35% 29.46 0.0
04 10:04 W 12 10.00 Mostly Cloudy BKN010 66.2 39.2 37% 29.46 0.0
04 09:44 W 10 10.00 Mostly Cloudy BKN110 66.2 37.4 35% 29.46 0.0
04 09:22 W 12 10.00 Partly Cloudy SCT110 68 37.4 33% 29.45 0.0
04 09:03 W 8 10.00 Fair CLR 66.2 37.4 35% 29.45 0.0
04 08:44 SW 8 10.00 Fair CLR 64.4 35.6 34% 29.45 0.0
04 08:04 SW 13 10.00 Fair CLR 60.8 33.8 36% 29.46 0.0
04 07:46 SW 10 10.00 Fair CLR 59 33.8 39% 29.46 0.0
04 07:30 SW 12 10.00 Fair CLR 57.2 33.8 41% 29.46 0.0
04 07:03 SW 13 10.00 Fair CLR 57.2 32 39% 29.46 0.0
04 06:40 SW 15 10.00 Fair CLR 55.4 32 41% 29.47 0.0
04 06:21 SW 10 10.00 Fair CLR 55.4 32 41% 29.47 0.0
04 06:03 SW 10 10.00 Fair CLR 57.2 32 39% 29.47 0.0
04 05:42 SW 9 10.00 Fair CLR 57.2 32 39% 29.48 0.0
04 05:27 SW 7 10.00 Fair CLR 57.2 32 39% 29.49 0.0
04 05:09 SW 7 10.00 Fair CLR 55.4 32 41% 29.5 0.0
04 04:50 SW 8 10.00 Fair CLR 55.4 32 41% 29.5 0.0
04 04:22 SW 9 10.00 Fair CLR 57.2 32 39% 29.52 0.0
04 04:02 SW 10 10.00 Fair CLR 57.2 32 39% 29.52 0.0
04 03:44 SW 7 10.00 Fair CLR 57.2 32 39% 29.54 0.0
04 03:24 SW 8 10.00 Fair CLR 55.4 32 41% 29.54 0.0
04 03:06 SW 5 10.00 Fair CLR 53.6 33.8 47% 29.55 0.0
04 02:44 Calm 10.00 Fair CLR 48.2 39.2 71% 29.57 0.0
04 02:24 Calm 10.00 Fair CLR 48.2 41 76% 29.57 0.0
04 02:09 Calm 10.00 Fair CLR 44.6 39.2 81% 29.58 0.0
04 01:51 Calm 10.00 Fair CLR 48.2 39.2 71% 29.59 0.0
04 01:22 Calm 10.00 Fair CLR 46.4 37.4 71% 29.6 0.0
04 01:04 Calm 10.00 Fair CLR 46.4 37.4 71% 29.61 0.0
04 00:32 Calm 10.00 Fair CLR 48.2 37.4 66% 29.62 0.0
04 00:04 Calm 10.00 Fair CLR 48.2 39.2 71% 29.63 0.0
03 23:44 Calm 10.00 Fair CLR 50 42.8 76% 29.64 0.0
03 23:26 Calm 10.00 Fair CLR 50 39.2 67% 29.65 0.0
03 23:04 Calm 10.00 Fair CLR 51.8 35.6 54% 0 0.0
03 22:32 Calm 10.00 Fair CLR 50 37.4 62% 29.66 0.0
03 22:03 Calm 10.00 Fair CLR 53.6 37.4 54% 29.67 0.0
03 21:44 Calm 10.00 Fair CLR 57.2 32 39% 29.67 0.0
03 21:11 SW 3 10.00 Fair CLR 59 35.6 42% 29.67 0.0
03 20:47 Calm 10.00 Fair CLR 62.6 30.2 30% 29.67 0.0
03 20:20 W 5 10.00 Fair CLR 66.2 28.4 24% 29.66 0.0
03 20:01 W 3 10.00 Fair CLR 68 28.4 23% 29.66 0.0
03 19:41 W 6 10.00 Fair CLR 68 28.4 23% 29.66 0.0
03 19:22 NW 9 10.00 Fair CLR 68 26.6 21% 29.66 0.0
03 18:48 W 10 10.00 Fair CLR 69.8 28.4 21% 29.65 0.0
03 18:32 NW 12 10.00 Fair CLR 69.8 30.2 23% 29.65 0.0
03 17:37 NW 12 10.00 Fair CLR 71.6 37.4 29% 29.65 0.0
03 16:41 NW 16 10.00 Fair CLR 71.6 35.6 27% 29.65 0.0
03 16:21 NW 15 10.00 Fair CLR 71.6 35.6 27% 29.65 0.0
03 16:04 NW 15 10.00 Fair CLR 71.6 35.6 27% 29.66 0.0
03 15:42 NW 17 10.00 Fair CLR 71.6 35.6 27% 29.67 0.0
03 15:24 N 15 10.00 Fair CLR 71.6 37.4 29% 0 0.0
03 15:04 N 13 10.00 Fair CLR 71.6 37.4 29% 29.67 0.0
03 14:47 NW 14 10.00 Fair CLR 71.6 39.2 31% 29.67 0.0
03 14:30 NW 15 10.00 Fair CLR 69.8 39.2 33% 29.67 0.0
03 14:03 NW 14 10.00 Fair CLR 69.8 37.4 31% 29.67 0.0
03 13:42 NW 10 10.00 Fair CLR 69.8 39.2 33% 29.68 0.0
03 13:23 N 10 10.00 Fair CLR 69.8 41 35% 29.68 0.0
03 13:05 NW 9 10.00 Fair CLR 69.8 39.2 33% 29.68 0.0
03 12:45 W 6 10.00 Fair CLR 68 37.4 33% 29.69 0.0
03 12:28 NW 7 10.00 Fair CLR 68 39.2 35% 29.69 0.0
03 12:00 W 5 10.00 Fair CLR 66.2 37.4 35% 29.7 0.0
03 11:41 W 6 10.00 Fair CLR 66.2 37.4 35% 29.7 0.0
03 11:24 W 5 10.00 Fair CLR 66.2 37.4 35% 29.7 0.0
03 11:05 W 6 10.00 Fair CLR 64.4 35.6 34% 29.7 0.0
03 10:47 SW 7 10.00 Fair CLR 64.4 35.6 34% 29.7 0.0
03 10:24 SW 8 10.00 Fair CLR 62.6 33.8 34% 29.7 0.0
03 10:05 SW 10 10.00 Fair CLR 62.6 33.8 34% 29.7 0.0
03 09:47 SW 7 10.00 Fair CLR 62.6 33.8 34% 0 0.0
03 09:31 SW 6 1.00 Fair CLR 62.6 33.8 34% 29.71 0.0
03 09:01 W 12 10.00 Fair CLR 60.8 32 34% 29.71 0.0
03 08:45 SW 10 10.00 Fair CLR 59 32 36% 29.71 0.0
03 08:30 SW 9 10.00 Fair CLR 59 32 36% 29.71 0.0
03 08:01 SW 9 10.00 Partly Cloudy SCT100 57.2 33.8 41% 0 0.0
03 07:42 SW 10 10.00 Partly Cloudy SCT100 57.2 33.8 41% 0 0.0
03 07:25 SW 10 10.00 Fair CLR 57.2 33.8 41% 0 0.0
03 07:05 SW 6 10.00 Partly Cloudy SCT110 57.2 33.8 41% 0 0.0
03 06:06 S 6 10.00 Partly Cloudy SCT120 55.4 32 41% 29.71 0.0
03 05:50 S 6 10.00 Fair CLR 57.2 32 39% 29.71 0.0
03 05:25 SW 14 10.00 Mostly Cloudy BKN110 57.2 32 39% 29.72 0.0
03 04:53 SW 12 10.00 Overcast SCT070 SCT085 OVC110 57.2 32 39% 29.74 0.0
03 04:22 SW 14 10.00 Partly Cloudy SCT110 57.2 32 39% 0 0.0
03 04:02 SW 12 10.00 Partly Cloudy SCT080 SCT010 SCT010 55.4 32 41% 29.76 0.0
03 03:42 SW 10 10.00 Overcast SCT080 OVC110 55.4 30.2 38% 29.77 0.0
Date Time (cdt) Wind (mph) Vis. (mi.) Weather Sky Cond. Air Dwpt Max. Min. Relative Humidity Wind Chill (°F) Heat Index (°F) altimeter (in) sea level (mb) 1 hr 3 hr 6 hr
6 hour
Temperature (ºF) Pressure Precipitation (in)